createdAt,value
2018-01-25T00:02:57.743Z,101971.46
2018-01-25T00:05:59.608Z,101964.09
2018-01-25T00:09:01.484Z,101966.95
2018-01-25T00:12:03.376Z,101967.53
2018-01-25T00:15:05.246Z,101964.58
2018-01-25T00:18:07.111Z,101959.94
2018-01-25T00:21:08.979Z,101962.99
2018-01-25T00:24:10.859Z,101961.80
2018-01-25T00:27:12.727Z,101967.91
2018-01-25T00:30:14.611Z,101971.49
2018-01-25T00:33:16.475Z,101974.54
2018-01-25T00:36:18.362Z,101965.63
2018-01-25T00:39:20.231Z,101971.24
2018-01-25T00:42:22.131Z,101966.76
2018-01-25T00:45:23.993Z,101962.17
2018-01-25T00:48:25.887Z,101959.47
2018-01-25T00:51:27.759Z,101949.33
2018-01-25T00:54:29.654Z,101942.76
2018-01-25T00:57:31.540Z,101941.76
2018-01-25T01:00:33.435Z,101940.82
2018-01-25T01:03:35.315Z,101937.69
2018-01-25T01:06:37.198Z,101933.08
2018-01-25T01:09:39.062Z,101932.97
2018-01-25T01:12:40.938Z,101932.27
2018-01-25T01:15:42.807Z,101921.95
2018-01-25T01:18:44.679Z,101918.77
2018-01-25T01:21:46.571Z,101918.57
2018-01-25T01:24:48.445Z,101913.03
2018-01-25T01:27:50.339Z,101916.16
2018-01-25T01:30:52.210Z,101911.25
2018-01-25T01:33:54.083Z,101912.67
2018-01-25T01:36:55.963Z,101912.16
2018-01-25T01:39:57.831Z,101917.29
2018-01-25T01:43:00.051Z,101905.50
2018-01-25T01:46:01.959Z,101896.28
2018-01-25T01:49:03.815Z,101895.44
2018-01-25T01:52:05.691Z,101886.43
2018-01-25T01:55:07.839Z,101897.24
2018-01-25T01:58:09.715Z,101899.25
2018-01-25T02:01:11.590Z,101895.36
2018-01-25T02:04:13.462Z,101893.08
2018-01-25T02:07:15.339Z,101897.02
2018-01-25T02:10:17.215Z,101894.94
2018-01-25T02:13:19.079Z,101889.78
2018-01-25T02:16:20.967Z,101892.63
2018-01-25T02:19:22.831Z,101889.08
2018-01-25T02:22:24.727Z,101885.27
2018-01-25T02:25:26.608Z,101880.09
2018-01-25T02:28:28.477Z,101877.76
2018-01-25T02:31:30.368Z,101875.07
2018-01-25T02:34:32.229Z,101879.79
2018-01-25T02:37:34.097Z,101879.30
2018-01-25T02:40:35.971Z,101882.82
2018-01-25T02:43:37.843Z,101881.89
2018-01-25T02:46:39.723Z,101876.58
2018-01-25T02:49:41.591Z,101876.65
2018-01-25T02:52:43.467Z,101874.87
2018-01-25T02:55:45.348Z,101876.14
2018-01-25T02:58:47.235Z,101878.00
2018-01-25T03:01:49.143Z,101877.05
2018-01-25T03:04:51.018Z,101870.45
2018-01-25T03:07:52.906Z,101873.68
2018-01-25T03:10:54.794Z,101868.81
2018-01-25T03:13:56.667Z,101865.08
2018-01-25T03:16:58.536Z,101864.04
2018-01-25T03:20:00.434Z,101862.50
2018-01-25T03:23:02.339Z,101853.84
2018-01-25T03:26:04.223Z,101849.57
2018-01-25T03:29:06.098Z,101848.67
2018-01-25T03:32:08.056Z,101844.31
2018-01-25T03:35:09.933Z,101840.86
2018-01-25T03:38:11.804Z,101847.41
2018-01-25T03:41:13.678Z,101850.04
2018-01-25T03:44:15.554Z,101854.58
2018-01-25T03:47:17.418Z,101853.56
2018-01-25T03:50:19.291Z,101855.48
2018-01-25T03:53:21.180Z,101855.75
2018-01-25T03:56:23.050Z,101861.67
2018-01-25T03:59:24.931Z,101860.72
2018-01-25T04:02:26.807Z,101865.69
2018-01-25T04:05:28.688Z,101866.36
2018-01-25T04:08:30.550Z,101868.16
2018-01-25T04:11:32.449Z,101868.40
2018-01-25T04:14:34.310Z,101860.53
2018-01-25T04:17:36.187Z,101860.27
2018-01-25T04:20:38.065Z,101864.86
2018-01-25T04:23:39.975Z,101864.22
2018-01-25T04:26:41.855Z,101870.30
2018-01-25T04:29:43.731Z,101875.28
2018-01-25T04:32:45.626Z,101876.11
2018-01-25T04:35:47.502Z,101877.32
2018-01-25T04:38:49.399Z,101877.22
2018-01-25T04:41:51.274Z,101877.34
2018-01-25T04:44:53.141Z,101880.57
2018-01-25T04:47:55.014Z,101878.32
2018-01-25T04:50:56.887Z,101876.67
2018-01-25T04:53:58.768Z,101868.94
2018-01-25T04:57:00.647Z,101869.00
2018-01-25T05:00:02.528Z,101873.84
2018-01-25T05:03:04.423Z,101876.08
2018-01-25T05:06:06.272Z,101874.65
2018-01-25T05:09:08.150Z,101874.27
2018-01-25T05:12:10.044Z,101875.21
2018-01-25T05:15:11.915Z,101866.91
2018-01-25T05:18:13.800Z,101873.50
2018-01-25T05:21:15.683Z,101872.09
2018-01-25T05:24:17.568Z,101873.71
2018-01-25T05:27:19.453Z,101858.55
2018-01-25T05:30:21.338Z,101864.59
2018-01-25T05:33:23.217Z,101862.60
2018-01-25T05:36:25.087Z,101862.91
2018-01-25T05:39:26.962Z,101866.65
2018-01-25T05:42:28.876Z,101865.70
2018-01-25T05:45:30.747Z,101866.41
2018-01-25T05:48:32.634Z,101860.95
2018-01-25T05:51:34.503Z,101858.94
2018-01-25T05:54:36.406Z,101861.98
2018-01-25T05:57:38.278Z,101866.75
2018-01-25T06:00:40.159Z,101866.54
2018-01-25T06:03:42.042Z,101864.90
2018-01-25T06:06:43.915Z,101865.72
2018-01-25T06:09:45.802Z,101876.75
2018-01-25T06:12:47.664Z,101880.01
2018-01-25T06:15:49.579Z,101875.99
2018-01-25T06:18:51.451Z,101877.32
2018-01-25T06:21:53.310Z,101872.94
2018-01-25T06:24:55.459Z,101870.82
2018-01-25T06:27:57.662Z,101870.26
2018-01-25T06:30:59.539Z,101862.40
2018-01-25T06:34:01.427Z,101866.22
2018-01-25T06:37:03.308Z,101868.39
2018-01-25T06:40:05.174Z,101859.27
2018-01-25T06:43:07.079Z,101861.73
2018-01-25T06:46:08.955Z,101863.27
2018-01-25T06:49:10.824Z,101870.50
2018-01-25T06:52:12.711Z,101867.21
2018-01-25T06:55:14.582Z,101861.89
2018-01-25T06:58:16.451Z,101851.01
2018-01-25T07:01:18.323Z,101852.93
2018-01-25T07:04:20.210Z,101854.46
2018-01-25T07:07:22.083Z,101851.16
2018-01-25T07:10:23.975Z,101853.33
2018-01-25T07:13:25.846Z,101852.33
2018-01-25T07:16:27.723Z,101854.36
2018-01-25T07:19:29.623Z,101850.03
2018-01-25T07:22:31.512Z,101850.37
2018-01-25T07:25:33.376Z,101844.97
2018-01-25T07:28:35.251Z,101849.17
2018-01-25T07:31:37.131Z,101848.32
2018-01-25T07:34:38.999Z,101850.78
2018-01-25T07:37:40.874Z,101854.82
2018-01-25T07:40:42.754Z,101856.55
2018-01-25T07:43:44.628Z,101861.23
2018-01-25T07:46:46.520Z,101863.72
2018-01-25T07:49:48.391Z,101860.52
2018-01-25T07:52:50.263Z,101861.53
2018-01-25T07:55:52.139Z,101860.40
2018-01-25T07:58:54.023Z,101866.32
2018-01-25T08:01:56.227Z,101863.69
2018-01-25T08:04:58.112Z,101862.17
2018-01-25T08:07:59.990Z,101865.45
2018-01-25T08:11:01.867Z,101853.61
2018-01-25T08:14:03.744Z,101847.42
2018-01-25T08:17:05.615Z,101853.15
2018-01-25T08:20:07.491Z,101855.74
2018-01-25T08:23:09.371Z,101863.25
2018-01-25T08:26:11.247Z,101861.79
2018-01-25T08:29:13.119Z,101864.82
2018-01-25T08:32:14.990Z,101861.95
2018-01-25T08:35:16.858Z,101866.57
2018-01-25T08:38:18.732Z,101864.22
2018-01-25T08:41:20.620Z,101864.80
2018-01-25T08:44:22.493Z,101865.16
2018-01-25T08:47:24.356Z,101862.75
2018-01-25T08:50:26.235Z,101863.54
2018-01-25T08:53:28.147Z,101862.97
2018-01-25T08:56:30.024Z,101855.25
2018-01-25T08:59:31.910Z,101859.93
2018-01-25T09:02:33.774Z,101864.85
2018-01-25T09:05:35.711Z,101866.63
2018-01-25T09:08:37.583Z,101872.09
2018-01-25T09:11:39.455Z,101865.87
2018-01-25T09:14:41.334Z,101870.60
2018-01-25T09:17:43.203Z,101872.29
2018-01-25T09:20:45.084Z,101874.24
2018-01-25T09:23:46.963Z,101877.53
2018-01-25T09:26:48.830Z,101882.53
2018-01-25T09:29:50.699Z,101880.18
2018-01-25T09:32:52.614Z,101883.62
2018-01-25T09:35:54.491Z,101877.55
2018-01-25T09:38:56.359Z,101878.42
2018-01-25T09:41:58.255Z,101881.55
2018-01-25T09:45:00.150Z,101876.63
2018-01-25T09:48:02.054Z,101889.80
2018-01-25T09:51:03.927Z,101893.18
2018-01-25T09:54:05.802Z,101893.42
2018-01-25T09:57:07.688Z,101895.39
2018-01-25T10:00:09.576Z,101903.88
2018-01-25T10:03:11.450Z,101900.35
2018-01-25T10:06:13.319Z,101900.69
2018-01-25T10:09:15.211Z,101897.05
2018-01-25T10:12:17.084Z,101897.41
2018-01-25T10:15:18.963Z,101899.08
2018-01-25T10:18:20.871Z,101895.11
2018-01-25T10:21:22.749Z,101885.64
2018-01-25T10:24:24.627Z,101888.54
2018-01-25T10:27:26.535Z,101878.97
2018-01-25T10:30:28.390Z,101882.24
2018-01-25T10:33:30.279Z,101871.77
2018-01-25T10:36:32.167Z,101871.77
2018-01-25T10:39:34.040Z,101868.05
2018-01-25T10:42:35.916Z,101860.57
2018-01-25T10:45:37.807Z,101855.92
2018-01-25T10:48:39.678Z,101859.48
2018-01-25T10:51:41.619Z,101853.84
2018-01-25T10:54:43.499Z,101848.91
2018-01-25T10:57:45.383Z,101840.03
2018-01-25T11:00:51.434Z,101838.87
2018-01-25T11:03:53.304Z,101841.13
2018-01-25T11:06:55.185Z,101843.16
2018-01-25T11:09:57.050Z,101834.57
2018-01-25T11:12:58.920Z,101828.48
2018-01-25T11:16:00.823Z,101821.54
2018-01-25T11:19:02.706Z,101814.88
2018-01-25T11:22:04.603Z,101808.90
2018-01-25T11:25:06.485Z,101779.37
2018-01-25T11:28:08.360Z,101801.28
2018-01-25T11:31:10.278Z,101804.42
2018-01-25T11:34:12.159Z,101802.64
2018-01-25T11:37:14.048Z,101783.72
2018-01-25T11:40:15.924Z,101785.60
2018-01-25T11:43:17.790Z,101783.97
2018-01-25T11:46:19.663Z,101776.49
2018-01-25T11:49:21.548Z,101775.62
2018-01-25T11:52:23.427Z,101773.45
2018-01-25T11:55:25.320Z,101772.67
2018-01-25T11:58:27.199Z,101762.88
2018-01-25T12:01:29.064Z,101756.96
2018-01-25T12:04:30.939Z,101756.22
2018-01-25T12:07:32.946Z,101743.45
2018-01-25T12:10:34.691Z,101746.33
2018-01-25T12:13:36.595Z,101738.38
2018-01-25T12:16:38.495Z,101740.35
2018-01-25T12:19:40.343Z,101728.92
2018-01-25T12:22:42.210Z,101725.41
2018-01-25T12:25:44.078Z,101720.58
2018-01-25T12:28:45.956Z,101712.15
2018-01-25T12:31:47.847Z,101711.72
2018-01-25T12:34:49.712Z,101705.64
2018-01-25T12:37:51.582Z,101694.26
2018-01-25T12:40:53.608Z,101698.84
2018-01-25T12:43:55.503Z,101692.42
2018-01-25T12:46:57.428Z,101685.13
2018-01-25T12:49:59.402Z,101682.53
2018-01-25T12:53:01.275Z,101675.11
2018-01-25T12:56:03.167Z,101668.35
2018-01-25T12:59:05.043Z,101667.58
2018-01-25T13:02:06.933Z,101665.12
2018-01-25T13:05:08.827Z,101660.40
2018-01-25T13:08:10.704Z,101663.73
2018-01-25T13:11:12.588Z,101660.60
2018-01-25T13:14:14.460Z,101649.11
2018-01-25T13:17:16.347Z,101651.57
2018-01-25T13:20:18.219Z,101650.56
2018-01-25T13:23:20.096Z,101642.17
2018-01-25T13:26:21.963Z,101632.91
2018-01-25T13:29:23.840Z,101628.52
2018-01-25T13:32:25.719Z,101626.50
2018-01-25T13:35:27.594Z,101625.24
2018-01-25T13:38:29.666Z,101622.44
2018-01-25T13:41:31.544Z,101616.13
2018-01-25T13:44:33.422Z,101618.73
2018-01-25T13:47:35.313Z,101619.22
2018-01-25T13:50:37.184Z,101616.35
2018-01-25T13:53:39.040Z,101613.32
2018-01-25T13:56:40.924Z,101617.16
2018-01-25T13:59:42.846Z,101615.85
2018-01-25T14:02:44.714Z,101609.93
2018-01-25T14:05:46.590Z,101610.08
2018-01-25T14:08:48.466Z,101603.10
2018-01-25T14:11:50.331Z,101603.18
2018-01-25T14:14:52.207Z,101598.78
2018-01-25T14:17:54.079Z,101597.59
2018-01-25T14:20:55.966Z,101597.57
2018-01-25T14:23:57.839Z,101597.78
2018-01-25T14:26:59.711Z,101593.60
2018-01-25T14:30:01.583Z,101591.67
2018-01-25T14:33:03.459Z,101593.28
2018-01-25T14:36:05.672Z,101590.29
2018-01-25T14:39:07.560Z,101580.59
2018-01-25T14:42:09.480Z,101582.16
2018-01-25T14:45:11.406Z,101587.18
2018-01-25T14:48:13.223Z,101592.16
2018-01-25T14:51:15.120Z,101593.08
2018-01-25T14:54:17.003Z,101596.29
2018-01-25T14:57:18.879Z,101592.62
2018-01-25T15:00:20.746Z,101589.20
2018-01-25T15:03:22.689Z,101589.59
2018-01-25T15:06:24.587Z,101587.23
2018-01-25T15:09:26.456Z,101585.95
2018-01-25T15:12:28.342Z,101586.96
2018-01-25T15:15:30.223Z,101586.63
2018-01-25T15:18:32.086Z,101587.30
2018-01-25T15:21:33.964Z,101587.21
2018-01-25T15:24:35.884Z,101588.42
2018-01-25T15:27:37.759Z,101588.40
2018-01-25T15:30:39.655Z,101585.36
2018-01-25T15:33:41.519Z,101587.10
2018-01-25T15:36:43.390Z,101584.15
2018-01-25T15:39:45.263Z,101585.17
2018-01-25T15:42:47.180Z,101579.18
2018-01-25T15:45:49.073Z,101572.42
2018-01-25T15:48:50.950Z,101567.50
2018-01-25T15:51:52.822Z,101560.51
2018-01-25T15:54:54.709Z,101554.52
2018-01-25T15:57:56.576Z,101554.86
2018-01-25T16:00:58.479Z,101558.11
2018-01-25T16:04:00.356Z,101559.66
2018-01-25T16:07:02.223Z,101555.52
2018-01-25T16:10:04.100Z,101550.93
2018-01-25T16:13:05.979Z,101554.16
2018-01-25T16:16:07.871Z,101553.24
2018-01-25T16:19:09.737Z,101549.19
2018-01-25T16:22:11.603Z,101552.91
2018-01-25T16:25:13.475Z,101549.87
2018-01-25T16:28:15.387Z,101556.19
2018-01-25T16:31:17.263Z,101560.34
2018-01-25T16:34:19.127Z,101562.86
2018-01-25T16:37:21.020Z,101556.54
2018-01-25T16:40:22.908Z,101557.76
2018-01-25T16:43:24.839Z,101558.77
2018-01-25T16:46:26.708Z,101555.40
2018-01-25T16:49:28.582Z,101561.58
2018-01-25T16:52:30.519Z,101559.49
2018-01-25T16:55:32.567Z,101556.21
2018-01-25T16:58:34.458Z,101552.98
2018-01-25T17:01:36.387Z,101553.17
2018-01-25T17:04:38.259Z,101559.68
2018-01-25T17:07:40.138Z,101556.45
2018-01-25T17:10:42.043Z,101555.96
2018-01-25T17:13:43.915Z,101557.45
2018-01-25T17:16:45.811Z,101563.06
2018-01-25T17:19:47.694Z,101562.27
2018-01-25T17:22:49.578Z,101560.00
2018-01-25T17:25:51.468Z,101562.28
2018-01-25T17:28:53.359Z,101558.80
2018-01-25T17:31:55.238Z,101552.02
2018-01-25T17:34:57.119Z,101549.79
2018-01-25T17:37:58.991Z,101548.01
2018-01-25T17:41:00.874Z,101551.45
2018-01-25T17:44:02.799Z,101554.98
2018-01-25T17:47:04.698Z,101554.04
2018-01-25T17:50:06.772Z,101551.67
2018-01-25T17:53:08.679Z,101554.72
2018-01-25T17:56:10.602Z,101549.77
2018-01-25T17:59:12.487Z,101550.74
2018-01-25T18:02:14.371Z,101559.09
2018-01-25T18:05:16.263Z,101561.77
2018-01-25T18:08:18.148Z,101559.31
2018-01-25T18:11:20.065Z,101561.92
2018-01-25T18:14:21.952Z,101556.12
2018-01-25T18:17:23.828Z,101551.87
2018-01-25T18:20:25.719Z,101553.81
2018-01-25T18:23:27.595Z,101555.59
2018-01-25T18:26:29.484Z,101557.47
2018-01-25T18:29:31.359Z,101562.35
2018-01-25T18:32:33.241Z,101566.52
2018-01-25T18:35:35.111Z,101565.25
2018-01-25T18:38:36.995Z,101564.63
2018-01-25T18:41:38.890Z,101562.26
2018-01-25T18:44:40.771Z,101562.94
2018-01-25T18:47:42.651Z,101559.84
2018-01-25T18:50:44.527Z,101552.11
2018-01-25T18:53:46.418Z,101544.68
2018-01-25T18:56:48.312Z,101545.61
2018-01-25T18:59:51.100Z,101538.35
2018-01-25T19:02:52.983Z,101542.91
2018-01-25T19:05:54.871Z,101538.02
2018-01-25T19:08:56.770Z,101540.54
2018-01-25T19:11:59.542Z,101537.89
2018-01-25T19:15:01.423Z,101537.22
2018-01-25T19:18:03.300Z,101538.08
2018-01-25T19:21:05.183Z,101541.51
2018-01-25T19:24:07.061Z,101538.44
2018-01-25T19:27:08.969Z,101535.54
2018-01-25T19:30:10.836Z,101533.37
2018-01-25T19:33:12.724Z,101529.89
2018-01-25T19:36:14.607Z,101534.82
2018-01-25T19:39:16.494Z,101536.20
2018-01-25T19:42:18.376Z,101537.00
2018-01-25T19:45:20.263Z,101533.13
2018-01-25T19:48:22.163Z,101533.71
2018-01-25T19:51:24.022Z,101522.18
2018-01-25T19:54:25.915Z,101519.14
2018-01-25T19:57:27.795Z,101517.26
2018-01-25T20:00:29.686Z,101513.11
2018-01-25T20:03:31.571Z,101511.40
2018-01-25T20:06:33.443Z,101507.67
2018-01-25T20:09:35.321Z,101508.15
2018-01-25T20:12:37.211Z,101501.09
2018-01-25T20:15:39.090Z,101503.21
2018-01-25T20:18:40.963Z,101500.69
2018-01-25T20:21:42.890Z,101501.71
2018-01-25T20:24:44.767Z,101507.85
2018-01-25T20:27:46.639Z,101507.05
2018-01-25T20:30:48.518Z,101516.32
2018-01-25T20:33:50.382Z,101510.79
2018-01-25T20:36:52.267Z,101515.04
2018-01-25T20:39:54.134Z,101515.18
2018-01-25T20:42:56.011Z,101512.51
2018-01-25T20:45:57.924Z,101514.38
2018-01-25T20:48:59.804Z,101506.30
2018-01-25T20:52:01.711Z,101507.17
2018-01-25T20:55:03.593Z,101506.88
2018-01-25T20:58:05.479Z,101506.50
2018-01-25T21:01:07.357Z,101499.29
2018-01-25T21:04:09.239Z,101504.22
2018-01-25T21:07:11.113Z,101505.60
2018-01-25T21:10:13.005Z,101503.20
2018-01-25T21:13:14.890Z,101498.18
2018-01-25T21:16:16.778Z,101499.84
2018-01-25T21:19:18.663Z,101496.59
2018-01-25T21:22:20.531Z,101495.14
2018-01-25T21:25:22.403Z,101500.31
2018-01-25T21:28:24.278Z,101495.13
2018-01-25T21:31:26.151Z,101499.65
2018-01-25T21:34:28.036Z,101499.22
2018-01-25T21:37:29.910Z,101505.03
2018-01-25T21:40:31.795Z,101504.62
2018-01-25T21:43:33.675Z,101502.59
2018-01-25T21:46:35.566Z,101506.85
2018-01-25T21:49:37.441Z,101513.36
2018-01-25T21:52:39.319Z,101513.36
2018-01-25T21:55:41.191Z,101512.59
2018-01-25T21:58:43.074Z,101516.33
2018-01-25T22:01:44.955Z,101514.98
2018-01-25T22:04:46.851Z,101513.44
2018-01-25T22:07:48.721Z,101518.81
2018-01-25T22:10:50.604Z,101520.17
2018-01-25T22:13:52.483Z,101513.54
2018-01-25T22:16:54.361Z,101519.95
2018-01-25T22:19:56.234Z,101519.84
2018-01-25T22:22:58.102Z,101517.49
2018-01-25T22:25:59.979Z,101519.61
2018-01-25T22:29:01.867Z,101528.80
2018-01-25T22:32:03.738Z,101531.17
2018-01-25T22:35:05.646Z,101526.98
2018-01-25T22:38:07.542Z,101524.95
2018-01-25T22:41:09.422Z,101527.98
2018-01-25T22:44:11.308Z,101533.26
2018-01-25T22:47:13.183Z,101533.31
2018-01-25T22:50:15.052Z,101534.61
2018-01-25T22:53:16.928Z,101528.57
2018-01-25T22:56:18.806Z,101524.40
2018-01-25T22:59:20.685Z,101528.78
2018-01-25T23:02:22.571Z,101516.89
2018-01-25T23:05:24.439Z,101524.50
2018-01-25T23:08:26.326Z,101523.81
2018-01-25T23:11:28.218Z,101528.78
2018-01-25T23:14:30.187Z,101528.90
2018-01-25T23:17:32.100Z,101536.13
2018-01-25T23:20:33.986Z,101535.74
2018-01-25T23:23:35.887Z,101536.67
2018-01-25T23:26:37.765Z,101538.60
2018-01-25T23:29:39.626Z,101527.56
2018-01-25T23:32:41.498Z,101527.70
2018-01-25T23:35:43.374Z,101526.68
2018-01-25T23:38:45.255Z,101521.24
2018-01-25T23:41:47.157Z,101526.65
2018-01-25T23:44:49.023Z,101521.05
2018-01-25T23:47:50.903Z,101517.91
2018-01-25T23:50:52.803Z,101525.86
2018-01-25T23:53:54.755Z,101518.58
2018-01-25T23:56:56.637Z,101533.31
2018-01-25T23:59:58.503Z,101527.81
